createdAt,value
2018-12-05T00:01:17.979Z,83
2018-12-05T00:12:13.577Z,83
2018-12-05T00:17:40.673Z,83
2018-12-05T00:23:07.538Z,83
2018-12-05T00:28:34.769Z,83
2018-12-05T00:34:02.766Z,83
2018-12-05T00:39:32.694Z,83
2018-12-05T00:44:58.983Z,83
2018-12-05T00:50:27.125Z,83
2018-12-05T00:55:55.501Z,83
2018-12-05T01:01:22.352Z,83
2018-12-05T01:06:49.470Z,83
2018-12-05T01:12:17.457Z,83
2018-12-05T01:17:44.719Z,83
2018-12-05T01:23:12.808Z,83
2018-12-05T01:28:40.918Z,83
2018-12-05T01:34:08.117Z,83
2018-12-05T01:39:36.161Z,83
2018-12-05T01:45:04.245Z,83
2018-12-05T01:50:31.411Z,83
2018-12-05T01:55:58.578Z,83
2018-12-05T02:01:26.607Z,83
2018-12-05T02:06:54.771Z,83
2018-12-05T02:12:21.860Z,83
2018-12-05T02:17:48.962Z,83
2018-12-05T02:23:17.080Z,83
2018-12-05T02:28:45.166Z,83
2018-12-05T02:34:13.384Z,83
2018-12-05T02:39:41.727Z,84
2018-12-05T02:45:11.336Z,84
2018-12-05T02:50:37.735Z,84
2018-12-05T02:56:03.810Z,84
2018-12-05T03:01:31.911Z,84
2018-12-05T03:06:59.972Z,84
2018-12-05T03:12:27.110Z,84
2018-12-05T03:17:55.232Z,84
2018-12-05T03:23:23.315Z,84
2018-12-05T03:28:51.310Z,84
2018-12-05T03:34:18.588Z,84
2018-12-05T03:39:45.665Z,84
2018-12-05T03:45:13.018Z,84
2018-12-05T03:50:39.882Z,84
2018-12-05T03:56:07.955Z,84
2018-12-05T04:01:36.058Z,84
2018-12-05T04:07:03.161Z,84
2018-12-05T04:12:31.364Z,84
2018-12-05T04:17:57.367Z,84
2018-12-05T04:23:25.686Z,84
2018-12-05T04:28:52.993Z,84
2018-12-05T04:34:20.708Z,84
2018-12-05T04:39:48.034Z,84
2018-12-05T04:45:16.126Z,84
2018-12-05T04:50:44.363Z,84
2018-12-05T04:56:12.090Z,85
2018-12-05T05:01:39.504Z,85
2018-12-05T05:07:07.123Z,85
2018-12-05T05:12:33.694Z,85
2018-12-05T05:18:01.543Z,85
2018-12-05T05:23:28.625Z,85
2018-12-05T05:28:56.843Z,85
2018-12-05T05:34:23.765Z,85
2018-12-05T05:39:51.879Z,85
2018-12-05T05:45:19.960Z,85
2018-12-05T05:50:47.022Z,85
2018-12-05T05:56:14.209Z,85
2018-12-05T06:01:41.228Z,85
2018-12-05T06:07:08.334Z,85
2018-12-05T06:12:36.325Z,86
2018-12-05T06:18:02.576Z,86
2018-12-05T06:23:29.682Z,86
2018-12-05T06:28:56.936Z,86
2018-12-05T06:34:24.002Z,86
2018-12-05T06:39:52.146Z,86
2018-12-05T06:45:19.227Z,86
2018-12-05T06:50:47.436Z,86
2018-12-05T06:56:15.452Z,87
2018-12-05T07:01:43.534Z,86
2018-12-05T07:07:11.134Z,86
2018-12-05T07:12:38.706Z,86
2018-12-05T07:18:07.113Z,86
2018-12-05T07:23:39.493Z,86
2018-12-05T07:29:01.077Z,86
2018-12-05T07:34:29.072Z,86
2018-12-05T07:39:57.243Z,86
2018-12-05T07:45:25.317Z,87
2018-12-05T07:50:52.367Z,87
2018-12-05T07:56:20.459Z,87
2018-12-05T08:01:48.528Z,87
2018-12-05T08:07:15.593Z,87
2018-12-05T08:12:43.727Z,87
2018-12-05T08:18:10.815Z,87
2018-12-05T08:23:40.804Z,87
2018-12-05T08:29:04.982Z,87
2018-12-05T08:34:32.996Z,87
2018-12-05T08:40:01.089Z,87
2018-12-05T08:45:28.257Z,87
2018-12-05T08:50:55.456Z,87
2018-12-05T08:56:22.359Z,87
2018-12-05T09:01:49.611Z,87
2018-12-05T09:07:16.647Z,87
2018-12-05T09:12:43.716Z,87
2018-12-05T09:18:11.835Z,87
2018-12-05T09:23:38.900Z,87
2018-12-05T09:29:07.009Z,87
2018-12-05T09:34:35.143Z,87
2018-12-05T09:40:02.260Z,87
2018-12-05T09:45:30.642Z,87
2018-12-05T09:50:57.548Z,87
2018-12-05T09:56:24.695Z,87
2018-12-05T10:01:51.822Z,87
2018-12-05T10:07:19.992Z,87
2018-12-05T10:12:48.714Z,87
2018-12-05T10:18:15.298Z,87
2018-12-05T10:23:42.532Z,87
2018-12-05T10:29:11.301Z,88
2018-12-05T10:34:39.520Z,88
2018-12-05T10:40:07.003Z,88
2018-12-05T10:45:35.157Z,88
2018-12-05T10:56:30.660Z,88
2018-12-05T11:01:59.831Z,88
2018-12-05T11:07:25.891Z,88
2018-12-05T11:12:53.510Z,88
2018-12-05T11:18:21.705Z,88
2018-12-05T11:23:50.266Z,88
2018-12-05T11:29:15.789Z,88
2018-12-05T11:34:42.879Z,88
2018-12-05T11:40:11.022Z,88
2018-12-05T11:45:39.242Z,88
2018-12-05T11:51:06.944Z,88
2018-12-05T11:56:33.598Z,88
2018-12-05T12:02:02.349Z,88
2018-12-05T12:07:31.519Z,88
2018-12-05T12:12:57.144Z,88
2018-12-05T12:18:25.750Z,88
2018-12-05T12:23:53.527Z,88
2018-12-05T12:29:21.349Z,88
2018-12-05T12:34:47.917Z,88
2018-12-05T12:40:16.128Z,88
2018-12-05T12:45:44.439Z,88
2018-12-05T12:51:11.441Z,88
2018-12-05T12:56:38.914Z,88
2018-12-05T13:02:07.543Z,89
2018-12-05T13:07:35.684Z,89
2018-12-05T13:13:04.353Z,89
2018-12-05T13:18:30.868Z,89
2018-12-05T13:23:57.992Z,89
2018-12-05T13:29:25.069Z,89
2018-12-05T13:34:53.296Z,89
2018-12-05T13:40:21.464Z,89
2018-12-05T13:45:48.663Z,89
2018-12-05T13:51:16.120Z,89
2018-12-05T13:56:43.050Z,89
2018-12-05T14:02:11.214Z,89
2018-12-05T14:07:38.371Z,89
2018-12-05T14:13:04.516Z,89
2018-12-05T14:18:32.736Z,89
2018-12-05T14:24:01.873Z,89
2018-12-05T14:29:28.757Z,89
2018-12-05T14:34:57.047Z,89
2018-12-05T14:40:24.381Z,90
2018-12-05T14:45:51.367Z,90
2018-12-05T14:51:18.524Z,90
2018-12-05T14:56:45.700Z,90
2018-12-05T15:02:14.708Z,90
2018-12-05T15:07:42.182Z,90
2018-12-05T15:13:10.048Z,90
2018-12-05T15:18:39.304Z,90
2018-12-05T15:24:07.596Z,90
2018-12-05T15:29:35.136Z,90
2018-12-05T15:35:01.635Z,90
2018-12-05T15:40:31.088Z,90
2018-12-05T15:45:57.075Z,90
2018-12-05T15:51:24.877Z,90
2018-12-05T15:56:51.955Z,90
2018-12-05T16:02:19.884Z,90
2018-12-05T16:07:46.715Z,90
2018-12-05T16:13:15.319Z,90
2018-12-05T16:18:42.867Z,90
2018-12-05T16:24:09.467Z,90
2018-12-05T16:29:38.839Z,90
2018-12-05T16:35:05.131Z,90
2018-12-05T16:40:31.648Z,90
2018-12-05T16:46:00.972Z,90
2018-12-05T16:51:28.714Z,90
2018-12-05T16:56:54.922Z,90
2018-12-05T17:02:29.593Z,90
2018-12-05T17:07:51.882Z,90
2018-12-05T17:13:16.264Z,90
2018-12-05T17:18:43.336Z,90
2018-12-05T17:24:11.142Z,90
2018-12-05T17:29:39.731Z,90
2018-12-05T17:35:06.478Z,90
2018-12-05T17:40:32.811Z,90
2018-12-05T17:46:01.939Z,90
2018-12-05T17:52:06.089Z,90
2018-12-05T17:56:56.151Z,90
2018-12-05T18:02:23.302Z,90
2018-12-05T18:07:51.460Z,90
2018-12-05T18:13:21.222Z,90
2018-12-05T18:18:47.915Z,90
2018-12-05T18:24:14.861Z,90
2018-12-05T18:29:44.048Z,90
2018-12-05T18:35:10.149Z,90
2018-12-05T18:40:38.128Z,90
2018-12-05T18:46:06.480Z,90
2018-12-05T18:51:33.437Z,90
2018-12-05T18:57:01.022Z,90
2018-12-05T19:02:28.957Z,90
2018-12-05T19:07:55.891Z,90
2018-12-05T19:13:23.681Z,90
2018-12-05T19:18:51.398Z,90
2018-12-05T19:24:18.832Z,90
2018-12-05T19:29:45.541Z,90
2018-12-05T19:35:12.936Z,90
2018-12-05T19:40:40.026Z,90
2018-12-05T19:46:07.153Z,90
2018-12-05T19:51:39.947Z,90
2018-12-05T19:57:03.622Z,90
2018-12-05T20:02:31.160Z,90
2018-12-05T20:07:58.718Z,90
2018-12-05T20:13:26.717Z,90
2018-12-05T20:18:53.690Z,90
2018-12-05T20:24:22.082Z,90
2018-12-05T20:29:49.855Z,90
2018-12-05T20:35:18.110Z,90
2018-12-05T20:40:46.179Z,90
2018-12-05T20:46:14.409Z,90
2018-12-05T20:51:41.907Z,90
2018-12-05T20:57:08.692Z,89
2018-12-05T21:02:37.381Z,89
2018-12-05T21:08:04.024Z,89
2018-12-05T21:13:32.307Z,89
2018-12-05T21:19:00.979Z,89
2018-12-05T21:24:27.983Z,89
2018-12-05T21:29:56.840Z,89
2018-12-05T21:35:21.886Z,89
2018-12-05T21:40:49.568Z,89
2018-12-05T21:46:17.199Z,89
2018-12-05T21:51:45.388Z,89
2018-12-05T21:57:14.136Z,89
2018-12-05T22:02:42.525Z,89
2018-12-05T22:08:09.985Z,89
2018-12-05T22:13:37.814Z,89
2018-12-05T22:19:04.476Z,89
2018-12-05T22:24:33.297Z,89
2018-12-05T22:30:02.192Z,89
2018-12-05T22:35:27.843Z,89
2018-12-05T22:40:55.973Z,89
2018-12-05T22:46:23.164Z,89
2018-12-05T22:51:52.158Z,89
2018-12-05T22:57:19.667Z,89
2018-12-05T23:02:46.630Z,89
2018-12-05T23:08:14.549Z,89
2018-12-05T23:13:42.072Z,89
2018-12-05T23:19:15.284Z,89
2018-12-05T23:24:37.241Z,89
2018-12-05T23:30:04.311Z,89
2018-12-05T23:35:32.043Z,89
2018-12-05T23:40:58.982Z,89
2018-12-05T23:46:28.003Z,89
2018-12-05T23:51:55.809Z,89
2018-12-05T23:57:23.100Z,89
